sensor_id;sensor_type;location;lat;lon;timestamp;P1;durP1;ratioP1;P2;durP2;ratioP2
75542;SDS011;64129;53.508;10.476;2023-05-31T00:01:04;7.40;;;2.70;;
75542;SDS011;64129;53.508;10.476;2023-05-31T00:03:31;4.55;;;2.72;;
75542;SDS011;64129;53.508;10.476;2023-05-31T00:05:57;4.63;;;2.40;;
75542;SDS011;64129;53.508;10.476;2023-05-31T00:08:24;3.22;;;2.22;;
75542;SDS011;64129;53.508;10.476;2023-05-31T00:10:50;8.15;;;2.88;;
75542;SDS011;64129;53.508;10.476;2023-05-31T00:13:17;6.03;;;2.78;;
75542;SDS011;64129;53.508;10.476;2023-05-31T00:15:43;5.57;;;2.72;;
75542;SDS011;64129;53.508;10.476;2023-05-31T00:18:10;5.03;;;3.08;;
75542;SDS011;64129;53.508;10.476;2023-05-31T00:20:37;4.90;;;2.50;;
75542;SDS011;64129;53.508;10.476;2023-05-31T00:23:03;5.30;;;2.60;;
75542;SDS011;64129;53.508;10.476;2023-05-31T00:25:30;3.55;;;2.45;;
75542;SDS011;64129;53.508;10.476;2023-05-31T00:27:56;6.75;;;2.78;;
75542;SDS011;64129;53.508;10.476;2023-05-31T00:30:23;5.70;;;2.78;;
75542;SDS011;64129;53.508;10.476;2023-05-31T00:32:49;4.50;;;2.78;;
75542;SDS011;64129;53.508;10.476;2023-05-31T00:35:16;5.05;;;2.67;;
75542;SDS011;64129;53.508;10.476;2023-05-31T00:37:43;4.78;;;2.75;;
75542;SDS011;64129;53.508;10.476;2023-05-31T00:40:09;4.47;;;2.72;;
75542;SDS011;64129;53.508;10.476;2023-05-31T00:42:36;5.35;;;2.22;;
75542;SDS011;64129;53.508;10.476;2023-05-31T00:45:04;4.70;;;2.55;;
75542;SDS011;64129;53.508;10.476;2023-05-31T00:47:33;4.57;;;2.30;;
75542;SDS011;64129;53.508;10.476;2023-05-31T00:50:01;5.65;;;2.58;;
75542;SDS011;64129;53.508;10.476;2023-05-31T00:52:28;3.97;;;2.47;;
75542;SDS011;64129;53.508;10.476;2023-05-31T00:54:55;6.30;;;3.05;;
75542;SDS011;64129;53.508;10.476;2023-05-31T00:57:22;5.35;;;2.30;;
75542;SDS011;64129;53.508;10.476;2023-05-31T00:59:48;5.32;;;2.70;;
75542;SDS011;64129;53.508;10.476;2023-05-31T01:02:15;3.75;;;2.45;;
75542;SDS011;64129;53.508;10.476;2023-05-31T01:04:44;5.05;;;2.88;;
75542;SDS011;64129;53.508;10.476;2023-05-31T01:07:11;4.60;;;2.50;;
75542;SDS011;64129;53.508;10.476;2023-05-31T01:09:38;4.78;;;2.70;;
75542;SDS011;64129;53.508;10.476;2023-05-31T01:20:19;4.28;;;2.90;;
75542;SDS011;64129;53.508;10.476;2023-05-31T01:22:55;5.40;;;2.97;;
75542;SDS011;64129;53.508;10.476;2023-05-31T01:25:33;3.53;;;2.65;;
75542;SDS011;64129;53.508;10.476;2023-05-31T01:28:12;3.70;;;1.95;;
75542;SDS011;64129;53.508;10.476;2023-05-31T01:30:41;3.38;;;2.90;;
75542;SDS011;64129;53.508;10.476;2023-05-31T01:33:10;5.25;;;2.40;;
75542;SDS011;64129;53.508;10.476;2023-05-31T01:35:38;6.93;;;2.97;;
75542;SDS011;64129;53.508;10.476;2023-05-31T01:38:05;5.63;;;3.60;;
75542;SDS011;64129;53.508;10.476;2023-05-31T01:40:31;6.03;;;2.88;;
75542;SDS011;64129;53.508;10.476;2023-05-31T01:43:00;5.38;;;2.53;;
75542;SDS011;64129;53.508;10.476;2023-05-31T01:45:26;4.88;;;2.53;;
75542;SDS011;64129;53.508;10.476;2023-05-31T01:47:55;4.15;;;2.53;;
75542;SDS011;64129;53.508;10.476;2023-05-31T01:50:26;5.43;;;2.85;;
75542;SDS011;64129;53.508;10.476;2023-05-31T01:52:53;6.18;;;2.97;;
75542;SDS011;64129;53.508;10.476;2023-05-31T01:55:20;5.85;;;2.70;;
75542;SDS011;64129;53.508;10.476;2023-05-31T01:57:49;6.15;;;3.05;;
75542;SDS011;64129;53.508;10.476;2023-05-31T02:00:18;6.38;;;3.05;;
75542;SDS011;64129;53.508;10.476;2023-05-31T02:02:46;4.63;;;2.70;;
75542;SDS011;64129;53.508;10.476;2023-05-31T02:05:13;4.07;;;2.50;;
75542;SDS011;64129;53.508;10.476;2023-05-31T02:07:44;3.78;;;2.47;;
75542;SDS011;64129;53.508;10.476;2023-05-31T02:10:13;4.18;;;2.42;;
75542;SDS011;64129;53.508;10.476;2023-05-31T02:12:40;4.97;;;2.70;;
75542;SDS011;64129;53.508;10.476;2023-05-31T02:15:07;5.25;;;2.90;;
75542;SDS011;64129;53.508;10.476;2023-05-31T02:17:38;4.68;;;2.90;;
75542;SDS011;64129;53.508;10.476;2023-05-31T02:20:12;3.95;;;2.25;;
75542;SDS011;64129;53.508;10.476;2023-05-31T02:22:40;6.00;;;2.53;;
75542;SDS011;64129;53.508;10.476;2023-05-31T02:25:08;4.00;;;2.88;;
75542;SDS011;64129;53.508;10.476;2023-05-31T02:27:38;3.45;;;2.45;;
75542;SDS011;64129;53.508;10.476;2023-05-31T02:30:06;5.95;;;2.95;;
75542;SDS011;64129;53.508;10.476;2023-05-31T02:32:34;6.85;;;2.65;;
75542;SDS011;64129;53.508;10.476;2023-05-31T02:35:03;5.80;;;3.10;;
75542;SDS011;64129;53.508;10.476;2023-05-31T02:37:31;6.03;;;3.05;;
75542;SDS011;64129;53.508;10.476;2023-05-31T02:39:58;4.75;;;2.97;;
75542;SDS011;64129;53.508;10.476;2023-05-31T02:42:25;3.53;;;2.65;;
75542;SDS011;64129;53.508;10.476;2023-05-31T02:44:51;6.68;;;2.72;;
75542;SDS011;64129;53.508;10.476;2023-05-31T02:47:18;3.42;;;2.92;;
75542;SDS011;64129;53.508;10.476;2023-05-31T02:49:45;4.78;;;3.20;;
75542;SDS011;64129;53.508;10.476;2023-05-31T02:52:12;4.22;;;2.80;;
75542;SDS011;64129;53.508;10.476;2023-05-31T02:55:04;5.47;;;2.75;;
75542;SDS011;64129;53.508;10.476;2023-05-31T02:57:40;3.40;;;2.45;;
75542;SDS011;64129;53.508;10.476;2023-05-31T03:00:06;5.38;;;2.80;;
75542;SDS011;64129;53.508;10.476;2023-05-31T03:02:37;5.38;;;3.38;;
75542;SDS011;64129;53.508;10.476;2023-05-31T03:05:24;4.53;;;2.85;;
75542;SDS011;64129;53.508;10.476;2023-05-31T03:07:50;4.10;;;2.75;;
75542;SDS011;64129;53.508;10.476;2023-05-31T03:10:17;5.00;;;3.10;;
75542;SDS011;64129;53.508;10.476;2023-05-31T03:12:44;6.65;;;3.05;;
75542;SDS011;64129;53.508;10.476;2023-05-31T03:15:10;8.35;;;4.43;;
75542;SDS011;64129;53.508;10.476;2023-05-31T03:17:37;9.35;;;3.33;;
75542;SDS011;64129;53.508;10.476;2023-05-31T03:20:05;4.40;;;3.15;;
75542;SDS011;64129;53.508;10.476;2023-05-31T03:22:36;6.93;;;3.13;;
75542;SDS011;64129;53.508;10.476;2023-05-31T03:25:04;5.10;;;2.95;;
75542;SDS011;64129;53.508;10.476;2023-05-31T03:27:31;4.07;;;2.55;;
75542;SDS011;64129;53.508;10.476;2023-05-31T03:29:58;4.93;;;2.80;;
75542;SDS011;64129;53.508;10.476;2023-05-31T03:32:24;6.35;;;2.97;;
75542;SDS011;64129;53.508;10.476;2023-05-31T03:34:51;5.85;;;2.97;;
75542;SDS011;64129;53.508;10.476;2023-05-31T03:37:18;3.60;;;3.13;;
75542;SDS011;64129;53.508;10.476;2023-05-31T03:39:50;4.63;;;3.08;;
75542;SDS011;64129;53.508;10.476;2023-05-31T03:42:24;4.95;;;3.03;;
75542;SDS011;64129;53.508;10.476;2023-05-31T03:44:51;5.97;;;2.92;;
75542;SDS011;64129;53.508;10.476;2023-05-31T03:47:17;4.78;;;2.67;;
75542;SDS011;64129;53.508;10.476;2023-05-31T03:49:44;6.25;;;3.40;;
75542;SDS011;64129;53.508;10.476;2023-05-31T03:52:10;5.35;;;3.08;;
75542;SDS011;64129;53.508;10.476;2023-05-31T03:54:39;6.55;;;3.33;;
75542;SDS011;64129;53.508;10.476;2023-05-31T03:57:06;4.63;;;2.95;;
75542;SDS011;64129;53.508;10.476;2023-05-31T03:59:34;4.07;;;2.50;;
75542;SDS011;64129;53.508;10.476;2023-05-31T04:02:01;4.13;;;2.80;;
75542;SDS011;64129;53.508;10.476;2023-05-31T04:04:28;5.65;;;2.90;;
75542;SDS011;64129;53.508;10.476;2023-05-31T04:06:55;5.75;;;3.10;;
75542;SDS011;64129;53.508;10.476;2023-05-31T04:09:22;4.70;;;3.05;;
75542;SDS011;64129;53.508;10.476;2023-05-31T04:11:50;5.28;;;2.67;;
75542;SDS011;64129;53.508;10.476;2023-05-31T04:14:18;5.20;;;2.67;;
75542;SDS011;64129;53.508;10.476;2023-05-31T04:16:45;5.57;;;2.95;;
75542;SDS011;64129;53.508;10.476;2023-05-31T04:19:13;8.05;;;3.13;;
75542;SDS011;64129;53.508;10.476;2023-05-31T04:21:40;5.70;;;3.13;;
75542;SDS011;64129;53.508;10.476;2023-05-31T04:24:07;5.97;;;3.38;;
75542;SDS011;64129;53.508;10.476;2023-05-31T04:26:34;5.00;;;3.47;;
75542;SDS011;64129;53.508;10.476;2023-05-31T04:29:02;6.25;;;3.63;;
75542;SDS011;64129;53.508;10.476;2023-05-31T04:34:08;5.35;;;4.43;;
75542;SDS011;64129;53.508;10.476;2023-05-31T04:36:35;10.25;;;5.18;;
75542;SDS011;64129;53.508;10.476;2023-05-31T04:39:02;8.85;;;5.10;;
75542;SDS011;64129;53.508;10.476;2023-05-31T04:41:32;7.25;;;5.22;;
75542;SDS011;64129;53.508;10.476;2023-05-31T04:43:58;9.10;;;5.07;;
75542;SDS011;64129;53.508;10.476;2023-05-31T04:46:25;7.53;;;4.50;;
75542;SDS011;64129;53.508;10.476;2023-05-31T04:48:51;7.55;;;4.03;;
75542;SDS011;64129;53.508;10.476;2023-05-31T04:51:19;8.70;;;4.40;;
75542;SDS011;64129;53.508;10.476;2023-05-31T04:53:45;6.70;;;3.92;;
75542;SDS011;64129;53.508;10.476;2023-05-31T04:56:13;6.30;;;3.45;;
75542;SDS011;64129;53.508;10.476;2023-05-31T04:58:40;8.02;;;4.03;;
75542;SDS011;64129;53.508;10.476;2023-05-31T05:01:06;6.35;;;3.78;;
75542;SDS011;64129;53.508;10.476;2023-05-31T05:03:56;6.38;;;4.32;;
75542;SDS011;64129;53.508;10.476;2023-05-31T05:06:23;6.95;;;3.88;;
75542;SDS011;64129;53.508;10.476;2023-05-31T05:08:51;8.90;;;4.90;;
75542;SDS011;64129;53.508;10.476;2023-05-31T05:11:18;9.63;;;5.00;;
75542;SDS011;64129;53.508;10.476;2023-05-31T05:13:45;8.48;;;4.35;;
75542;SDS011;64129;53.508;10.476;2023-05-31T05:16:13;8.75;;;4.45;;
75542;SDS011;64129;53.508;10.476;2023-05-31T05:18:40;12.05;;;5.40;;
75542;SDS011;64129;53.508;10.476;2023-05-31T05:21:06;11.57;;;6.18;;
75542;SDS011;64129;53.508;10.476;2023-05-31T05:23:36;8.00;;;4.50;;
75542;SDS011;64129;53.508;10.476;2023-05-31T05:26:03;8.10;;;4.47;;
75542;SDS011;64129;53.508;10.476;2023-05-31T05:28:30;8.23;;;4.72;;
75542;SDS011;64129;53.508;10.476;2023-05-31T05:30:57;9.32;;;6.15;;
75542;SDS011;64129;53.508;10.476;2023-05-31T05:33:25;9.88;;;5.10;;
75542;SDS011;64129;53.508;10.476;2023-05-31T05:35:54;13.85;;;5.93;;
75542;SDS011;64129;53.508;10.476;2023-05-31T05:38:22;10.95;;;5.50;;
75542;SDS011;64129;53.508;10.476;2023-05-31T05:40:49;11.88;;;6.30;;
75542;SDS011;64129;53.508;10.476;2023-05-31T05:43:16;11.38;;;6.13;;
75542;SDS011;64129;53.508;10.476;2023-05-31T05:45:55;10.00;;;6.10;;
75542;SDS011;64129;53.508;10.476;2023-05-31T05:48:22;11.98;;;5.93;;
75542;SDS011;64129;53.508;10.476;2023-05-31T05:50:49;11.20;;;5.80;;
75542;SDS011;64129;53.508;10.476;2023-05-31T05:53:16;10.30;;;5.38;;
75542;SDS011;64129;53.508;10.476;2023-05-31T05:55:50;13.55;;;5.75;;
75542;SDS011;64129;53.508;10.476;2023-05-31T05:58:21;8.30;;;5.18;;
75542;SDS011;64129;53.508;10.476;2023-05-31T06:01:06;10.27;;;5.28;;
75542;SDS011;64129;53.508;10.476;2023-05-31T06:03:36;10.10;;;5.30;;
75542;SDS011;64129;53.508;10.476;2023-05-31T06:06:04;9.73;;;5.03;;
75542;SDS011;64129;53.508;10.476;2023-05-31T06:08:31;9.75;;;5.97;;
75542;SDS011;64129;53.508;10.476;2023-05-31T06:10:57;10.65;;;4.90;;
75542;SDS011;64129;53.508;10.476;2023-05-31T06:13:24;10.20;;;5.07;;
75542;SDS011;64129;53.508;10.476;2023-05-31T06:15:51;6.80;;;4.18;;
75542;SDS011;64129;53.508;10.476;2023-05-31T06:18:17;6.57;;;4.72;;
75542;SDS011;64129;53.508;10.476;2023-05-31T06:20:44;8.38;;;4.28;;
75542;SDS011;64129;53.508;10.476;2023-05-31T06:23:11;11.63;;;4.82;;
75542;SDS011;64129;53.508;10.476;2023-05-31T06:25:37;10.82;;;5.30;;
75542;SDS011;64129;53.508;10.476;2023-05-31T06:28:04;6.43;;;3.97;;
75542;SDS011;64129;53.508;10.476;2023-05-31T06:30:31;6.70;;;4.60;;
75542;SDS011;64129;53.508;10.476;2023-05-31T06:32:58;7.32;;;4.88;;
75542;SDS011;64129;53.508;10.476;2023-05-31T06:35:25;8.55;;;4.53;;
75542;SDS011;64129;53.508;10.476;2023-05-31T06:37:51;10.80;;;4.63;;
75542;SDS011;64129;53.508;10.476;2023-05-31T06:40:19;6.22;;;3.40;;
75542;SDS011;64129;53.508;10.476;2023-05-31T06:42:46;6.75;;;3.30;;
75542;SDS011;64129;53.508;10.476;2023-05-31T06:45:15;4.10;;;2.55;;
75542;SDS011;64129;53.508;10.476;2023-05-31T06:47:50;3.30;;;1.63;;
75542;SDS011;64129;53.508;10.476;2023-05-31T06:50:20;2.75;;;1.80;;
75542;SDS011;64129;53.508;10.476;2023-05-31T06:53:05;4.75;;;2.90;;
75542;SDS011;64129;53.508;10.476;2023-05-31T06:55:40;4.72;;;1.95;;
75542;SDS011;64129;53.508;10.476;2023-05-31T06:58:10;2.17;;;1.77;;
75542;SDS011;64129;53.508;10.476;2023-05-31T07:00:39;2.65;;;1.40;;
75542;SDS011;64129;53.508;10.476;2023-05-31T07:03:06;4.70;;;1.50;;
75542;SDS011;64129;53.508;10.476;2023-05-31T07:05:34;3.58;;;1.63;;
75542;SDS011;64129;53.508;10.476;2023-05-31T07:08:01;2.08;;;1.50;;
75542;SDS011;64129;53.508;10.476;2023-05-31T07:10:31;2.28;;;1.65;;
75542;SDS011;64129;53.508;10.476;2023-05-31T07:12:57;2.47;;;1.40;;
75542;SDS011;64129;53.508;10.476;2023-05-31T07:15:24;3.30;;;1.70;;
75542;SDS011;64129;53.508;10.476;2023-05-31T07:17:51;2.97;;;1.50;;
75542;SDS011;64129;53.508;10.476;2023-05-31T07:20:18;2.25;;;1.02;;
75542;SDS011;64129;53.508;10.476;2023-05-31T07:22:44;2.53;;;1.30;;
75542;SDS011;64129;53.508;10.476;2023-05-31T07:25:11;3.33;;;1.42;;
75542;SDS011;64129;53.508;10.476;2023-05-31T07:27:37;1.92;;;1.10;;
75542;SDS011;64129;53.508;10.476;2023-05-31T07:30:04;1.75;;;1.40;;
75542;SDS011;64129;53.508;10.476;2023-05-31T07:32:32;2.75;;;1.10;;
75542;SDS011;64129;53.508;10.476;2023-05-31T07:34:58;2.28;;;1.40;;
75542;SDS011;64129;53.508;10.476;2023-05-31T07:37:25;2.22;;;1.20;;
75542;SDS011;64129;53.508;10.476;2023-05-31T07:39:51;2.33;;;1.13;;
75542;SDS011;64129;53.508;10.476;2023-05-31T07:42:18;2.13;;;1.42;;
75542;SDS011;64129;53.508;10.476;2023-05-31T07:44:45;4.47;;;1.42;;
75542;SDS011;64129;53.508;10.476;2023-05-31T07:47:11;2.45;;;1.58;;
75542;SDS011;64129;53.508;10.476;2023-05-31T07:49:38;3.22;;;1.23;;
75542;SDS011;64129;53.508;10.476;2023-05-31T07:52:04;2.17;;;1.65;;
75542;SDS011;64129;53.508;10.476;2023-05-31T07:54:31;3.40;;;1.42;;
75542;SDS011;64129;53.508;10.476;2023-05-31T07:56:58;2.50;;;1.45;;
75542;SDS011;64129;53.508;10.476;2023-05-31T07:59:24;2.28;;;1.30;;
75542;SDS011;64129;53.508;10.476;2023-05-31T08:01:51;1.33;;;1.23;;
75542;SDS011;64129;53.508;10.476;2023-05-31T08:04:18;2.60;;;1.00;;
75542;SDS011;64129;53.508;10.476;2023-05-31T08:06:45;1.38;;;1.00;;
75542;SDS011;64129;53.508;10.476;2023-05-31T08:09:11;3.72;;;1.40;;
75542;SDS011;64129;53.508;10.476;2023-05-31T08:11:38;2.33;;;1.30;;
75542;SDS011;64129;53.508;10.476;2023-05-31T08:14:05;1.30;;;1.15;;
75542;SDS011;64129;53.508;10.476;2023-05-31T08:16:32;2.00;;;1.20;;
75542;SDS011;64129;53.508;10.476;2023-05-31T08:18:59;1.48;;;1.15;;
75542;SDS011;64129;53.508;10.476;2023-05-31T08:21:26;3.42;;;1.27;;
75542;SDS011;64129;53.508;10.476;2023-05-31T08:23:53;3.53;;;1.55;;
75542;SDS011;64129;53.508;10.476;2023-05-31T08:26:20;1.98;;;1.23;;
75542;SDS011;64129;53.508;10.476;2023-05-31T08:28:46;2.38;;;1.40;;
75542;SDS011;64129;53.508;10.476;2023-05-31T08:31:13;2.58;;;1.40;;
75542;SDS011;64129;53.508;10.476;2023-05-31T08:33:42;4.22;;;1.60;;
75542;SDS011;64129;53.508;10.476;2023-05-31T08:36:18;1.92;;;1.15;;
75542;SDS011;64129;53.508;10.476;2023-05-31T08:38:45;3.22;;;1.30;;
75542;SDS011;64129;53.508;10.476;2023-05-31T08:41:11;1.52;;;1.10;;
75542;SDS011;64129;53.508;10.476;2023-05-31T08:43:38;2.40;;;1.25;;
75542;SDS011;64129;53.508;10.476;2023-05-31T08:46:05;3.45;;;1.50;;
75542;SDS011;64129;53.508;10.476;2023-05-31T08:48:38;4.15;;;1.75;;
75542;SDS011;64129;53.508;10.476;2023-05-31T08:51:09;3.28;;;1.42;;
75542;SDS011;64129;53.508;10.476;2023-05-31T08:53:36;3.55;;;1.75;;
75542;SDS011;64129;53.508;10.476;2023-05-31T08:56:03;2.88;;;1.50;;
75542;SDS011;64129;53.508;10.476;2023-05-31T08:58:30;4.25;;;1.40;;
75542;SDS011;64129;53.508;10.476;2023-05-31T09:00:58;2.90;;;1.40;;
75542;SDS011;64129;53.508;10.476;2023-05-31T09:03:27;4.32;;;1.92;;
75542;SDS011;64129;53.508;10.476;2023-05-31T09:05:54;3.42;;;1.30;;
75542;SDS011;64129;53.508;10.476;2023-05-31T09:08:24;3.72;;;1.48;;
75542;SDS011;64129;53.508;10.476;2023-05-31T09:10:51;2.55;;;1.50;;
75542;SDS011;64129;53.508;10.476;2023-05-31T09:13:18;4.03;;;1.40;;
75542;SDS011;64129;53.508;10.476;2023-05-31T09:15:44;9.02;;;2.92;;
75542;SDS011;64129;53.508;10.476;2023-05-31T09:18:13;6.32;;;1.80;;
75542;SDS011;64129;53.508;10.476;2023-05-31T09:20:42;3.50;;;1.73;;
75542;SDS011;64129;53.508;10.476;2023-05-31T09:23:09;3.72;;;1.50;;
75542;SDS011;64129;53.508;10.476;2023-05-31T09:25:42;3.70;;;1.65;;
75542;SDS011;64129;53.508;10.476;2023-05-31T09:28:13;3.13;;;1.73;;
75542;SDS011;64129;53.508;10.476;2023-05-31T09:33:07;1.85;;;1.48;;
75542;SDS011;64129;53.508;10.476;2023-05-31T09:35:34;6.18;;;2.40;;
75542;SDS011;64129;53.508;10.476;2023-05-31T09:38:04;3.28;;;1.20;;
75542;SDS011;64129;53.508;10.476;2023-05-31T09:40:32;4.15;;;1.30;;
75542;SDS011;64129;53.508;10.476;2023-05-31T09:42:59;4.38;;;1.50;;
75542;SDS011;64129;53.508;10.476;2023-05-31T09:45:26;2.92;;;1.60;;
75542;SDS011;64129;53.508;10.476;2023-05-31T09:47:54;2.65;;;1.60;;
75542;SDS011;64129;53.508;10.476;2023-05-31T09:50:21;3.45;;;1.45;;
75542;SDS011;64129;53.508;10.476;2023-05-31T09:52:54;2.75;;;1.60;;
75542;SDS011;64129;53.508;10.476;2023-05-31T09:55:21;2.35;;;1.50;;
75542;SDS011;64129;53.508;10.476;2023-05-31T09:57:49;2.97;;;1.73;;
75542;SDS011;64129;53.508;10.476;2023-05-31T10:00:18;4.88;;;1.90;;
75542;SDS011;64129;53.508;10.476;2023-05-31T10:02:45;4.78;;;1.60;;
75542;SDS011;64129;53.508;10.476;2023-05-31T10:05:16;4.68;;;1.60;;
75542;SDS011;64129;53.508;10.476;2023-05-31T10:07:48;3.83;;;1.65;;
75542;SDS011;64129;53.508;10.476;2023-05-31T10:10:16;2.88;;;1.90;;
75542;SDS011;64129;53.508;10.476;2023-05-31T10:12:49;4.07;;;1.60;;
75542;SDS011;64129;53.508;10.476;2023-05-31T10:15:19;3.50;;;1.60;;
75542;SDS011;64129;53.508;10.476;2023-05-31T10:17:50;6.82;;;1.83;;
75542;SDS011;64129;53.508;10.476;2023-05-31T10:20:23;2.13;;;1.55;;
75542;SDS011;64129;53.508;10.476;2023-05-31T10:22:54;3.03;;;1.48;;
75542;SDS011;64129;53.508;10.476;2023-05-31T10:27:57;3.88;;;1.60;;
75542;SDS011;64129;53.508;10.476;2023-05-31T10:30:28;3.80;;;1.30;;
75542;SDS011;64129;53.508;10.476;2023-05-31T10:33:05;3.03;;;1.77;;
75542;SDS011;64129;53.508;10.476;2023-05-31T10:35:33;2.08;;;1.25;;
75542;SDS011;64129;53.508;10.476;2023-05-31T10:38:01;3.95;;;1.67;;
75542;SDS011;64129;53.508;10.476;2023-05-31T10:40:39;3.08;;;1.98;;
75542;SDS011;64129;53.508;10.476;2023-05-31T10:43:24;3.28;;;1.80;;
75542;SDS011;64129;53.508;10.476;2023-05-31T10:46:01;3.42;;;1.67;;
75542;SDS011;64129;53.508;10.476;2023-05-31T10:51:18;3.70;;;1.65;;
75542;SDS011;64129;53.508;10.476;2023-05-31T10:53:46;3.70;;;1.50;;
75542;SDS011;64129;53.508;10.476;2023-05-31T10:56:13;3.10;;;1.30;;
75542;SDS011;64129;53.508;10.476;2023-05-31T10:58:50;3.80;;;1.75;;
75542;SDS011;64129;53.508;10.476;2023-05-31T11:01:19;3.83;;;1.23;;
75542;SDS011;64129;53.508;10.476;2023-05-31T11:03:52;3.50;;;1.30;;
75542;SDS011;64129;53.508;10.476;2023-05-31T11:06:23;3.40;;;1.10;;
75542;SDS011;64129;53.508;10.476;2023-05-31T11:08:59;1.80;;;1.30;;
75542;SDS011;64129;53.508;10.476;2023-05-31T11:14:00;3.33;;;1.25;;
75542;SDS011;64129;53.508;10.476;2023-05-31T11:16:30;3.58;;;1.25;;
75542;SDS011;64129;53.508;10.476;2023-05-31T11:21:45;2.55;;;1.35;;
75542;SDS011;64129;53.508;10.476;2023-05-31T11:26:58;3.15;;;1.50;;
75542;SDS011;64129;53.508;10.476;2023-05-31T11:32:10;3.35;;;1.33;;
75542;SDS011;64129;53.508;10.476;2023-05-31T11:37:32;2.97;;;1.58;;
75542;SDS011;64129;53.508;10.476;2023-05-31T11:40:01;4.15;;;1.67;;
75542;SDS011;64129;53.508;10.476;2023-05-31T11:42:32;2.85;;;1.70;;
75542;SDS011;64129;53.508;10.476;2023-05-31T11:45:05;3.05;;;1.60;;
75542;SDS011;64129;53.508;10.476;2023-05-31T11:47:39;3.00;;;1.63;;
75542;SDS011;64129;53.508;10.476;2023-05-31T11:50:14;2.75;;;1.45;;
75542;SDS011;64129;53.508;10.476;2023-05-31T11:52:42;4.10;;;1.40;;
75542;SDS011;64129;53.508;10.476;2023-05-31T11:55:10;4.57;;;1.60;;
75542;SDS011;64129;53.508;10.476;2023-05-31T11:57:44;3.35;;;1.17;;
75542;SDS011;64129;53.508;10.476;2023-05-31T12:00:12;5.10;;;1.98;;
75542;SDS011;64129;53.508;10.476;2023-05-31T12:02:41;3.63;;;1.92;;
75542;SDS011;64129;53.508;10.476;2023-05-31T12:05:11;2.75;;;1.65;;
75542;SDS011;64129;53.508;10.476;2023-05-31T12:07:43;3.05;;;1.30;;
75542;SDS011;64129;53.508;10.476;2023-05-31T12:10:11;3.90;;;1.60;;
75542;SDS011;64129;53.508;10.476;2023-05-31T12:12:38;5.38;;;2.00;;
75542;SDS011;64129;53.508;10.476;2023-05-31T12:15:08;4.80;;;1.63;;
75542;SDS011;64129;53.508;10.476;2023-05-31T12:17:39;3.78;;;1.67;;
75542;SDS011;64129;53.508;10.476;2023-05-31T12:20:06;2.33;;;1.63;;
75542;SDS011;64129;53.508;10.476;2023-05-31T12:22:34;2.35;;;1.50;;
75542;SDS011;64129;53.508;10.476;2023-05-31T12:25:01;3.25;;;1.60;;
75542;SDS011;64129;53.508;10.476;2023-05-31T12:27:27;1.63;;;1.10;;
75542;SDS011;64129;53.508;10.476;2023-05-31T12:30:02;3.70;;;1.40;;
75542;SDS011;64129;53.508;10.476;2023-05-31T12:32:29;3.22;;;1.48;;
75542;SDS011;64129;53.508;10.476;2023-05-31T12:35:05;3.85;;;1.33;;
75542;SDS011;64129;53.508;10.476;2023-05-31T12:37:37;3.10;;;1.40;;
75542;SDS011;64129;53.508;10.476;2023-05-31T12:42:35;3.20;;;1.40;;
75542;SDS011;64129;53.508;10.476;2023-05-31T12:45:03;2.72;;;1.10;;
75542;SDS011;64129;53.508;10.476;2023-05-31T12:47:31;2.30;;;0.95;;
75542;SDS011;64129;53.508;10.476;2023-05-31T12:50:02;1.98;;;1.10;;
75542;SDS011;64129;53.508;10.476;2023-05-31T12:52:38;2.45;;;1.30;;
75542;SDS011;64129;53.508;10.476;2023-05-31T12:57:32;2.25;;;1.40;;
75542;SDS011;64129;53.508;10.476;2023-05-31T13:00:05;1.58;;;1.27;;
75542;SDS011;64129;53.508;10.476;2023-05-31T13:02:36;2.80;;;1.20;;
75542;SDS011;64129;53.508;10.476;2023-05-31T13:05:09;2.83;;;1.35;;
75542;SDS011;64129;53.508;10.476;2023-05-31T13:07:36;4.28;;;1.77;;
75542;SDS011;64129;53.508;10.476;2023-05-31T13:10:04;1.80;;;1.40;;
75542;SDS011;64129;53.508;10.476;2023-05-31T13:12:35;3.20;;;1.27;;
75542;SDS011;64129;53.508;10.476;2023-05-31T13:15:02;4.22;;;1.50;;
75542;SDS011;64129;53.508;10.476;2023-05-31T13:17:29;2.97;;;1.88;;
75542;SDS011;64129;53.508;10.476;2023-05-31T13:19:55;3.83;;;2.20;;
75542;SDS011;64129;53.508;10.476;2023-05-31T13:22:32;5.10;;;1.95;;
75542;SDS011;64129;53.508;10.476;2023-05-31T13:24:58;4.10;;;1.90;;
75542;SDS011;64129;53.508;10.476;2023-05-31T13:27:25;5.95;;;1.80;;
75542;SDS011;64129;53.508;10.476;2023-05-31T13:29:52;4.45;;;2.08;;
75542;SDS011;64129;53.508;10.476;2023-05-31T13:32:18;4.40;;;2.30;;
75542;SDS011;64129;53.508;10.476;2023-05-31T13:34:45;4.40;;;2.63;;
75542;SDS011;64129;53.508;10.476;2023-05-31T13:37:11;4.90;;;2.20;;
75542;SDS011;64129;53.508;10.476;2023-05-31T13:39:38;3.65;;;2.40;;
75542;SDS011;64129;53.508;10.476;2023-05-31T13:42:05;4.00;;;1.77;;
75542;SDS011;64129;53.508;10.476;2023-05-31T13:44:33;3.67;;;2.40;;
75542;SDS011;64129;53.508;10.476;2023-05-31T13:46:59;3.67;;;1.90;;
75542;SDS011;64129;53.508;10.476;2023-05-31T13:49:26;3.10;;;2.00;;
75542;SDS011;64129;53.508;10.476;2023-05-31T13:51:52;4.40;;;2.13;;
75542;SDS011;64129;53.508;10.476;2023-05-31T13:54:19;9.20;;;6.20;;
75542;SDS011;64129;53.508;10.476;2023-05-31T13:56:46;4.47;;;2.50;;
75542;SDS011;64129;53.508;10.476;2023-05-31T13:59:12;6.68;;;2.58;;
75542;SDS011;64129;53.508;10.476;2023-05-31T14:01:39;4.43;;;1.88;;
75542;SDS011;64129;53.508;10.476;2023-05-31T14:04:05;2.17;;;1.33;;
75542;SDS011;64129;53.508;10.476;2023-05-31T14:06:32;5.50;;;1.55;;
75542;SDS011;64129;53.508;10.476;2023-05-31T14:08:58;3.03;;;1.63;;
75542;SDS011;64129;53.508;10.476;2023-05-31T14:11:25;3.00;;;1.65;;
75542;SDS011;64129;53.508;10.476;2023-05-31T14:13:53;3.08;;;1.52;;
75542;SDS011;64129;53.508;10.476;2023-05-31T14:16:20;1.42;;;1.00;;
75542;SDS011;64129;53.508;10.476;2023-05-31T14:18:48;3.67;;;1.10;;
75542;SDS011;64129;53.508;10.476;2023-05-31T14:21:14;2.75;;;1.27;;
75542;SDS011;64129;53.508;10.476;2023-05-31T14:23:41;1.45;;;1.20;;
75542;SDS011;64129;53.508;10.476;2023-05-31T14:26:07;2.05;;;1.02;;
75542;SDS011;64129;53.508;10.476;2023-05-31T14:28:34;3.90;;;1.42;;
75542;SDS011;64129;53.508;10.476;2023-05-31T14:31:01;2.13;;;1.27;;
75542;SDS011;64129;53.508;10.476;2023-05-31T14:33:28;3.72;;;1.20;;
75542;SDS011;64129;53.508;10.476;2023-05-31T14:38:22;5.45;;;1.30;;
75542;SDS011;64129;53.508;10.476;2023-05-31T14:40:48;3.60;;;1.20;;
75542;SDS011;64129;53.508;10.476;2023-05-31T14:43:17;2.63;;;1.10;;
75542;SDS011;64129;53.508;10.476;2023-05-31T14:45:44;3.33;;;1.35;;
75542;SDS011;64129;53.508;10.476;2023-05-31T14:48:10;1.50;;;1.08;;
75542;SDS011;64129;53.508;10.476;2023-05-31T14:50:37;2.88;;;1.15;;
75542;SDS011;64129;53.508;10.476;2023-05-31T14:53:03;3.25;;;1.27;;
75542;SDS011;64129;53.508;10.476;2023-05-31T14:55:30;2.78;;;1.17;;
75542;SDS011;64129;53.508;10.476;2023-05-31T14:57:56;1.80;;;1.20;;
75542;SDS011;64129;53.508;10.476;2023-05-31T15:00:23;5.63;;;1.30;;
75542;SDS011;64129;53.508;10.476;2023-05-31T15:02:50;4.07;;;1.00;;
75542;SDS011;64129;53.508;10.476;2023-05-31T15:05:16;3.67;;;1.10;;
75542;SDS011;64129;53.508;10.476;2023-05-31T15:07:43;2.97;;;1.33;;
75542;SDS011;64129;53.508;10.476;2023-05-31T15:10:09;1.92;;;1.27;;
75542;SDS011;64129;53.508;10.476;2023-05-31T15:12:36;1.45;;;1.20;;
75542;SDS011;64129;53.508;10.476;2023-05-31T15:15:03;2.03;;;1.20;;
75542;SDS011;64129;53.508;10.476;2023-05-31T15:17:29;1.40;;;1.13;;
75542;SDS011;64129;53.508;10.476;2023-05-31T15:19:56;3.72;;;1.17;;